createdAt,value
2018-04-25T00:02:10.011Z,4.73
2018-04-25T00:04:38.393Z,4.87
2018-04-25T00:07:05.958Z,5.00
2018-04-25T00:09:34.228Z,4.97
2018-04-25T00:12:01.794Z,4.90
2018-04-25T00:14:29.293Z,4.60
2018-04-25T00:16:57.695Z,4.77
2018-04-25T00:19:25.114Z,4.53
2018-04-25T00:21:52.739Z,4.33
2018-04-25T00:24:20.243Z,4.30
2018-04-25T00:26:47.725Z,4.50
2018-04-25T00:29:15.281Z,4.80
2018-04-25T00:31:43.533Z,4.40
2018-04-25T00:34:11.021Z,4.60
2018-04-25T00:36:38.505Z,4.60
2018-04-25T00:39:06.855Z,4.47
2018-04-25T00:41:34.430Z,4.47
2018-04-25T00:44:02.007Z,4.13
2018-04-25T00:46:29.559Z,4.10
2018-04-25T00:48:57.084Z,4.30
2018-04-25T00:51:24.591Z,4.30
2018-04-25T00:53:52.163Z,4.60
2018-04-25T00:56:19.640Z,4.30
2018-04-25T00:58:47.896Z,3.93
2018-04-25T01:01:15.375Z,4.40
2018-04-25T01:03:43.630Z,4.50
2018-04-25T01:06:11.217Z,3.97
2018-04-25T01:08:38.774Z,4.57
2018-04-25T01:11:06.347Z,4.07
2018-04-25T01:13:33.838Z,4.50
2018-04-25T01:16:02.091Z,4.23
2018-04-25T01:18:29.661Z,4.10
2018-04-25T01:20:57.148Z,4.57
2018-04-25T01:23:25.472Z,3.90
2018-04-25T01:25:58.723Z,4.37
2018-04-25T01:28:34.663Z,4.50
2018-04-25T01:31:02.218Z,4.47
2018-04-25T01:33:37.268Z,4.13
2018-04-25T01:36:06.349Z,4.40
2018-04-25T01:38:34.004Z,4.20
2018-04-25T01:41:09.954Z,3.97
2018-04-25T01:43:39.362Z,3.90
2018-04-25T01:46:07.625Z,4.30
2018-04-25T01:51:45.918Z,3.93
2018-04-25T01:54:26.102Z,4.37
2018-04-25T01:57:05.576Z,3.97
2018-04-25T01:59:45.101Z,3.40
2018-04-25T02:02:12.120Z,4.27
2018-04-25T02:04:39.638Z,3.83
2018-04-25T02:07:07.124Z,4.00
2018-04-25T02:09:35.488Z,3.73
2018-04-25T02:12:03.004Z,3.77
2018-04-25T02:14:30.478Z,3.50
2018-04-25T02:16:58.087Z,4.00
2018-04-25T02:19:25.644Z,3.20
2018-04-25T02:21:53.126Z,4.07
2018-04-25T02:24:20.668Z,3.50
2018-04-25T02:26:48.246Z,5.93
2018-04-25T02:29:15.812Z,3.60
2018-04-25T02:31:43.365Z,3.40
2018-04-25T02:34:10.926Z,3.47
2018-04-25T02:36:38.510Z,3.60
2018-04-25T02:39:06.069Z,3.77
2018-04-25T02:41:33.642Z,3.50
2018-04-25T02:44:01.151Z,3.27
2018-04-25T02:46:28.632Z,3.57
2018-04-25T02:48:56.116Z,3.30
2018-04-25T02:51:23.685Z,3.50
2018-04-25T02:53:51.253Z,3.53
2018-04-25T02:56:18.828Z,3.80
2018-04-25T02:58:46.438Z,3.43
2018-04-25T03:01:14.571Z,3.67
2018-04-25T03:03:42.085Z,3.70
2018-04-25T03:06:09.590Z,3.30
2018-04-25T03:08:37.173Z,3.40
2018-04-25T03:11:05.417Z,3.80
2018-04-25T03:13:32.897Z,3.07
2018-04-25T03:16:00.469Z,3.33
2018-04-25T03:18:28.049Z,3.57
2018-04-25T03:20:55.609Z,3.33
2018-04-25T03:23:23.183Z,3.70
2018-04-25T03:25:50.663Z,3.50
2018-04-25T03:28:18.913Z,3.60
2018-04-25T03:30:46.432Z,3.60
2018-04-25T03:33:13.963Z,3.67
2018-04-25T03:35:41.443Z,3.43
2018-04-25T03:38:09.786Z,3.23
2018-04-25T03:40:37.268Z,3.30
2018-04-25T03:43:04.837Z,3.97
2018-04-25T03:45:32.325Z,3.50
2018-04-25T03:48:00.575Z,3.27
2018-04-25T03:50:28.139Z,3.87
2018-04-25T03:52:55.713Z,3.10
2018-04-25T03:55:23.217Z,3.37
2018-04-25T03:57:50.736Z,3.40
2018-04-25T04:00:18.216Z,4.40
2018-04-25T04:02:46.586Z,3.40
2018-04-25T04:05:14.065Z,3.67
2018-04-25T04:07:42.423Z,5.07
2018-04-25T04:10:09.914Z,3.70
2018-04-25T04:12:38.268Z,24.37
2018-04-25T04:15:05.777Z,133.53
2018-04-25T04:17:34.121Z,72.37
2018-04-25T04:20:01.697Z,48.30
2018-04-25T04:22:29.195Z,51.40
2018-04-25T04:24:56.709Z,53.30
2018-04-25T04:27:24.308Z,51.67
2018-04-25T04:29:51.814Z,48.27
2018-04-25T04:32:19.420Z,34.30
2018-04-25T04:34:46.937Z,42.33
2018-04-25T04:37:14.435Z,36.43
2018-04-25T04:39:42.029Z,40.80
2018-04-25T04:42:09.529Z,31.23
2018-04-25T04:44:37.111Z,34.77
2018-04-25T04:47:04.622Z,30.03
2018-04-25T04:49:32.231Z,23.37
2018-04-25T04:51:59.685Z,36.33
2018-04-25T04:54:27.181Z,30.83
2018-04-25T04:56:54.764Z,25.87
2018-04-25T04:59:22.268Z,139.70
2018-04-25T05:01:50.617Z,231.67
2018-04-25T05:04:18.132Z,174.80
2018-04-25T05:06:45.612Z,138.57
2018-04-25T05:09:13.154Z,153.87
2018-04-25T05:11:40.646Z,147.93
2018-04-25T05:14:08.138Z,140.67
2018-04-25T05:16:35.707Z,134.00
2018-04-25T05:19:03.202Z,122.57
2018-04-25T05:21:31.564Z,123.63
2018-04-25T05:23:59.114Z,109.43
2018-04-25T05:26:26.690Z,107.90
2018-04-25T05:28:54.256Z,103.23
2018-04-25T05:31:21.812Z,100.97
2018-04-25T05:33:49.310Z,86.27
2018-04-25T05:36:17.574Z,84.23
2018-04-25T05:38:45.094Z,99.53
2018-04-25T05:41:12.593Z,80.00
2018-04-25T05:43:40.157Z,81.60
2018-04-25T05:46:07.678Z,87.33
2018-04-25T05:48:35.189Z,80.57
2018-04-25T05:51:02.680Z,80.20
2018-04-25T05:53:31.031Z,71.87
2018-04-25T05:55:58.601Z,76.30
2018-04-25T05:58:26.163Z,73.57
2018-04-25T06:00:53.675Z,67.27
2018-04-25T06:03:21.191Z,77.43
2018-04-25T06:05:48.676Z,70.17
2018-04-25T06:08:16.935Z,66.70
2018-04-25T06:10:44.440Z,72.63
2018-04-25T06:13:11.962Z,71.17
2018-04-25T06:15:39.498Z,70.93
2018-04-25T06:18:07.078Z,62.33
2018-04-25T06:20:34.672Z,66.70
2018-04-25T06:23:02.242Z,58.30
2018-04-25T06:25:29.726Z,59.37
2018-04-25T06:27:58.068Z,61.30
2018-04-25T06:30:25.688Z,57.57
2018-04-25T06:32:53.202Z,60.27
2018-04-25T06:35:20.734Z,46.83
2018-04-25T06:37:48.249Z,51.10
2018-04-25T06:40:15.802Z,50.03
2018-04-25T06:42:43.304Z,49.43
2018-04-25T06:45:11.571Z,52.90
2018-04-25T06:47:39.090Z,48.33
2018-04-25T06:50:06.698Z,49.07
2018-04-25T06:52:34.981Z,46.40
2018-04-25T06:55:03.353Z,51.33
2018-04-25T06:57:30.931Z,55.47
2018-04-25T06:59:58.477Z,48.07
2018-04-25T07:02:25.953Z,45.93
2018-04-25T07:04:53.439Z,43.97
2018-04-25T07:07:21.782Z,46.13
2018-04-25T07:09:49.367Z,41.70
2018-04-25T07:12:16.876Z,43.73
2018-04-25T07:14:44.388Z,49.93
2018-04-25T07:17:11.895Z,38.47
2018-04-25T07:19:39.387Z,41.20
2018-04-25T07:22:06.896Z,40.20
2018-04-25T07:24:34.424Z,40.33
2018-04-25T07:27:02.013Z,36.70
2018-04-25T07:29:29.583Z,38.43
2018-04-25T07:31:57.864Z,36.90
2018-04-25T07:34:25.386Z,39.73
2018-04-25T07:36:52.898Z,37.23
2018-04-25T07:39:20.410Z,35.87
2018-04-25T07:41:47.912Z,36.67
2018-04-25T07:44:15.413Z,39.00
2018-04-25T07:46:43.670Z,35.00
2018-04-25T07:49:12.048Z,33.40
2018-04-25T07:51:39.616Z,34.83
2018-04-25T07:54:07.179Z,29.60
2018-04-25T07:56:34.752Z,32.30
2018-04-25T07:59:02.237Z,31.97
2018-04-25T08:01:30.609Z,31.53
2018-04-25T08:03:58.097Z,32.47
2018-04-25T08:06:25.630Z,27.57
2018-04-25T08:08:53.198Z,29.83
2018-04-25T08:11:20.775Z,28.97
2018-04-25T08:14:00.291Z,26.70
2018-04-25T08:16:39.675Z,33.40
2018-04-25T08:19:19.282Z,28.20
2018-04-25T08:21:46.772Z,24.13
2018-04-25T08:24:14.276Z,30.90
2018-04-25T08:26:41.782Z,27.80
2018-04-25T08:29:10.146Z,26.93
2018-04-25T08:31:37.672Z,33.37
2018-04-25T08:34:05.204Z,22.70
2018-04-25T08:36:33.457Z,25.37
2018-04-25T08:39:00.968Z,24.90
2018-04-25T08:41:28.492Z,27.57
2018-04-25T08:43:57.582Z,23.07
2018-04-25T08:46:25.064Z,23.20
2018-04-25T08:48:52.568Z,22.83
2018-04-25T08:51:20.073Z,26.13
2018-04-25T08:53:47.587Z,24.87
2018-04-25T08:56:15.103Z,21.53
2018-04-25T08:58:42.611Z,24.47
2018-04-25T09:01:10.974Z,26.23
2018-04-25T09:03:38.554Z,23.10
2018-04-25T09:06:06.835Z,22.13
2018-04-25T09:08:35.108Z,23.43
2018-04-25T09:11:02.650Z,21.57
2018-04-25T09:13:30.152Z,19.77
2018-04-25T09:15:58.500Z,22.20
2018-04-25T09:18:26.796Z,20.47
2018-04-25T09:20:54.372Z,18.37
2018-04-25T09:23:22.637Z,20.70
2018-04-25T09:25:50.136Z,19.90
2018-04-25T09:28:17.629Z,21.90
2018-04-25T09:30:45.135Z,15.23
2018-04-25T09:33:12.709Z,20.93
2018-04-25T09:35:40.256Z,21.77
2018-04-25T09:38:07.762Z,20.90
2018-04-25T09:40:35.240Z,15.10
2018-04-25T09:43:02.757Z,16.53
2018-04-25T09:45:30.316Z,16.47
2018-04-25T09:47:57.888Z,20.17
2018-04-25T09:50:26.287Z,16.13
2018-04-25T09:52:53.822Z,19.10
2018-04-25T09:55:21.325Z,16.30
2018-04-25T09:57:49.755Z,14.47
2018-04-25T10:00:17.198Z,14.90
2018-04-25T10:02:44.700Z,15.73
2018-04-25T10:05:12.203Z,14.93
2018-04-25T10:07:40.554Z,13.63
2018-04-25T10:10:08.046Z,14.33
2018-04-25T10:12:36.401Z,16.97
2018-04-25T10:15:03.960Z,17.50
2018-04-25T10:17:31.544Z,12.43
2018-04-25T10:19:59.308Z,14.80
2018-04-25T10:22:26.875Z,14.27
2018-04-25T10:24:55.121Z,12.60
2018-04-25T10:27:22.632Z,16.73
2018-04-25T10:29:50.120Z,14.73
2018-04-25T10:32:18.474Z,16.27
2018-04-25T10:34:46.080Z,21.80
2018-04-25T10:37:13.606Z,21.27
2018-04-25T10:39:41.088Z,20.73
2018-04-25T10:42:09.356Z,18.53
2018-04-25T10:44:37.473Z,18.43
2018-04-25T10:47:04.964Z,16.87
2018-04-25T10:49:32.575Z,20.23
2018-04-25T10:52:00.943Z,16.73
2018-04-25T10:54:28.426Z,18.13
2018-04-25T10:56:56.698Z,23.03
2018-04-25T10:59:24.239Z,20.30
2018-04-25T11:01:51.863Z,16.03
2018-04-25T11:04:19.385Z,22.87
2018-04-25T11:06:46.877Z,19.03
2018-04-25T11:09:15.225Z,26.27
2018-04-25T11:11:42.792Z,12.43
2018-04-25T11:14:10.289Z,13.73
2018-04-25T11:16:37.818Z,15.00
2018-04-25T11:19:05.386Z,19.73
2018-04-25T11:21:32.889Z,22.73
2018-04-25T11:24:00.395Z,13.53
2018-04-25T11:26:27.948Z,21.40
2018-04-25T11:28:56.168Z,14.70
2018-04-25T11:31:23.659Z,18.47
2018-04-25T11:33:51.928Z,17.70
2018-04-25T11:36:19.426Z,14.57
2018-04-25T11:38:46.905Z,14.83
2018-04-25T11:41:14.429Z,14.60
2018-04-25T11:43:41.899Z,15.67
2018-04-25T11:46:10.231Z,18.13
2018-04-25T11:48:37.719Z,16.83
2018-04-25T11:51:05.283Z,20.53
2018-04-25T11:53:32.846Z,19.00
2018-04-25T11:56:00.330Z,17.87
2018-04-25T11:58:28.612Z,15.77
2018-04-25T12:00:56.973Z,16.00
2018-04-25T12:03:24.484Z,20.90
2018-04-25T12:05:51.986Z,23.17
2018-04-25T12:08:19.561Z,30.33
2018-04-25T12:10:47.058Z,24.07
2018-04-25T12:13:15.388Z,27.00
2018-04-25T12:15:42.817Z,25.50
2018-04-25T12:18:10.304Z,25.53
2018-04-25T12:20:40.931Z,26.33
2018-04-25T12:23:08.537Z,20.43
2018-04-25T12:25:36.103Z,27.70
2018-04-25T12:28:03.661Z,20.03
2018-04-25T12:30:31.224Z,28.30
2018-04-25T12:32:58.731Z,20.93
2018-04-25T12:35:27.011Z,22.07
2018-04-25T12:37:55.265Z,20.83
2018-04-25T12:40:22.754Z,24.47
2018-04-25T12:42:51.014Z,23.73
2018-04-25T12:45:18.599Z,20.80
2018-04-25T12:47:46.119Z,26.03
2018-04-25T12:50:13.610Z,86.57
2018-04-25T12:52:41.092Z,20.80
2018-04-25T12:55:09.523Z,28.57
2018-04-25T12:57:37.205Z,19.63
2018-04-25T13:00:04.717Z,23.30
2018-04-25T13:02:32.976Z,27.50
2018-04-25T13:05:00.471Z,29.37
2018-04-25T13:07:28.733Z,22.73
2018-04-25T13:09:56.235Z,26.93
2018-04-25T13:12:23.741Z,25.30
2018-04-25T13:14:51.269Z,18.63
2018-04-25T13:17:18.753Z,17.13
2018-04-25T13:19:46.354Z,21.80
2018-04-25T13:22:13.851Z,20.10
2018-04-25T13:24:41.370Z,16.47
2018-04-25T13:27:08.941Z,20.77
2018-04-25T13:29:36.505Z,18.67
2018-04-25T13:32:04.023Z,14.30
2018-04-25T13:34:31.519Z,15.17
2018-04-25T13:36:59.115Z,22.40
2018-04-25T13:39:26.664Z,12.63
2018-04-25T13:41:54.174Z,13.13
2018-04-25T13:44:21.664Z,13.17
2018-04-25T13:46:49.158Z,9.03
2018-04-25T13:49:16.676Z,11.73
2018-04-25T13:51:44.161Z,8.23
2018-04-25T13:54:11.757Z,8.13
2018-04-25T13:56:39.267Z,15.20
2018-04-25T13:59:06.785Z,9.87
2018-04-25T14:01:34.345Z,10.70
2018-04-25T14:04:01.920Z,11.20
2018-04-25T14:06:29.399Z,9.90
2018-04-25T14:08:57.771Z,8.47
2018-04-25T14:11:25.256Z,8.83
2018-04-25T14:13:53.607Z,14.40
2018-04-25T14:16:21.097Z,8.73
2018-04-25T14:18:49.363Z,12.93
2018-04-25T14:21:16.879Z,15.97
2018-04-25T14:23:44.356Z,9.93
2018-04-25T14:26:11.862Z,8.20
2018-04-25T14:28:39.363Z,10.90
2018-04-25T14:31:06.860Z,8.23
2018-04-25T14:33:34.441Z,9.10
2018-04-25T14:36:02.026Z,5.70
2018-04-25T14:38:29.458Z,7.40
2018-04-25T14:40:57.044Z,5.20
2018-04-25T14:43:24.565Z,4.90
2018-04-25T14:45:52.047Z,10.17
2018-04-25T14:48:19.641Z,4.27
2018-04-25T14:50:47.206Z,5.23
2018-04-25T14:53:14.687Z,4.23
2018-04-25T14:55:42.948Z,3.93
2018-04-25T14:58:10.440Z,5.43
2018-04-25T15:00:38.707Z,4.10
2018-04-25T15:03:06.224Z,10.47
2018-04-25T15:05:33.726Z,7.70
2018-04-25T15:08:01.213Z,4.20
2018-04-25T15:10:29.556Z,4.40
2018-04-25T15:12:57.132Z,3.40
2018-04-25T15:15:24.654Z,17.53
2018-04-25T15:17:52.186Z,3.27
2018-04-25T15:20:19.675Z,4.83
2018-04-25T15:22:47.164Z,7.80
2018-04-25T15:25:14.649Z,8.27
2018-04-25T15:27:42.210Z,6.03
2018-04-25T15:30:09.700Z,4.87
2018-04-25T15:32:37.965Z,7.43
2018-04-25T15:35:05.540Z,5.93
2018-04-25T15:37:33.150Z,7.10
2018-04-25T15:40:00.658Z,6.90
2018-04-25T15:42:28.235Z,2.23
2018-04-25T15:44:55.717Z,2.73
2018-04-25T15:47:23.967Z,3.10
2018-04-25T15:49:51.465Z,3.33
2018-04-25T15:52:19.727Z,2.30
2018-04-25T15:54:47.989Z,4.37
2018-04-25T15:57:15.494Z,8.10
2018-04-25T15:59:43.862Z,22.97
2018-04-25T16:02:12.131Z,14.27
2018-04-25T16:04:39.664Z,8.70
2018-04-25T16:07:07.141Z,17.13
2018-04-25T16:09:34.644Z,5.60
2018-04-25T16:12:02.906Z,8.80
2018-04-25T16:14:30.408Z,9.83
2018-04-25T16:16:58.017Z,8.63
2018-04-25T16:19:26.238Z,6.77
2018-04-25T16:21:53.776Z,8.10
2018-04-25T16:24:21.274Z,8.87
2018-04-25T16:26:49.634Z,9.10
2018-04-25T16:29:17.132Z,7.43
2018-04-25T16:31:44.670Z,12.50
2018-04-25T16:34:12.186Z,3.90
2018-04-25T16:36:39.680Z,5.43
2018-04-25T16:39:07.940Z,3.37
2018-04-25T16:41:35.450Z,4.07
2018-04-25T16:44:04.531Z,11.70
2018-04-25T16:46:32.033Z,5.43
2018-04-25T16:49:00.378Z,3.13
2018-04-25T16:51:27.963Z,4.83
2018-04-25T16:53:56.240Z,4.70
2018-04-25T16:56:23.807Z,3.53
2018-04-25T16:58:51.366Z,3.10
2018-04-25T17:01:18.930Z,3.47
2018-04-25T17:03:46.420Z,5.00
2018-04-25T17:06:14.707Z,7.77
2018-04-25T17:08:42.965Z,2.80
2018-04-25T17:11:12.055Z,7.47
2018-04-25T17:13:39.533Z,10.23
2018-04-25T17:16:08.529Z,4.93
2018-04-25T17:18:36.057Z,6.83
2018-04-25T17:21:03.537Z,8.87
2018-04-25T17:23:31.125Z,10.83
2018-04-25T17:25:58.699Z,5.77
2018-04-25T17:28:26.255Z,8.20
2018-04-25T17:30:54.538Z,6.30
2018-04-25T17:33:22.146Z,8.70
2018-04-25T17:35:49.640Z,13.67
2018-04-25T17:38:17.234Z,7.97
2018-04-25T17:40:44.728Z,3.87
2018-04-25T17:43:13.066Z,5.27
2018-04-25T17:45:40.634Z,8.33
2018-04-25T17:48:08.216Z,3.07
2018-04-25T17:50:35.721Z,5.17
2018-04-25T17:53:03.213Z,5.43
2018-04-25T17:55:30.717Z,4.57
2018-04-25T17:57:58.235Z,12.00
2018-04-25T18:00:25.725Z,4.70
2018-04-25T18:02:53.301Z,5.93
2018-04-25T18:05:20.870Z,6.60
2018-04-25T18:07:48.427Z,5.43
2018-04-25T18:10:15.916Z,7.40
2018-04-25T18:12:44.179Z,9.20
2018-04-25T18:15:11.744Z,7.70
2018-04-25T18:17:40.749Z,4.73
2018-04-25T18:20:08.304Z,7.43
2018-04-25T18:22:35.796Z,5.63
2018-04-25T18:25:04.044Z,4.47
2018-04-25T18:27:31.567Z,5.33
2018-04-25T18:29:59.075Z,3.90
2018-04-25T18:32:26.649Z,7.50
2018-04-25T18:34:54.218Z,4.93
2018-04-25T18:37:21.760Z,5.53
2018-04-25T18:39:49.239Z,6.63
2018-04-25T18:42:16.819Z,4.90
2018-04-25T18:44:45.818Z,6.03
2018-04-25T18:47:13.383Z,3.67
2018-04-25T18:49:40.912Z,7.30
2018-04-25T18:52:08.396Z,4.27
2018-04-25T18:54:35.884Z,3.87
2018-04-25T18:57:04.150Z,5.47
2018-04-25T18:59:31.726Z,4.13
2018-04-25T19:01:59.236Z,3.57
2018-04-25T19:04:26.726Z,3.83
2018-04-25T19:06:54.212Z,7.63
2018-04-25T19:09:21.724Z,4.20
2018-04-25T19:11:49.234Z,5.17
2018-04-25T19:14:16.740Z,4.70
2018-04-25T19:16:44.236Z,6.67
2018-04-25T19:19:11.731Z,3.23
2018-04-25T19:21:39.241Z,5.80
2018-04-25T19:24:06.738Z,7.53
2018-04-25T19:26:34.243Z,9.07
2018-04-25T19:29:02.604Z,5.50
2018-04-25T19:31:30.123Z,4.57
2018-04-25T19:33:57.643Z,4.63
2018-04-25T19:36:25.144Z,7.90
2018-04-25T19:38:52.644Z,4.47
2018-04-25T19:41:20.124Z,4.37
2018-04-25T19:43:49.154Z,4.20
2018-04-25T19:46:17.512Z,6.37
2018-04-25T19:48:45.796Z,5.20
2018-04-25T19:51:13.289Z,4.77
2018-04-25T19:53:40.772Z,3.90
2018-04-25T19:56:08.270Z,4.07
2018-04-25T19:58:35.851Z,4.30
2018-04-25T20:01:03.411Z,4.10
2018-04-25T20:03:31.675Z,3.53
2018-04-25T20:05:59.259Z,4.20
2018-04-25T20:08:26.882Z,3.70
2018-04-25T20:10:54.321Z,3.37
2018-04-25T20:13:22.590Z,3.50
2018-04-25T20:15:50.853Z,3.50
2018-04-25T20:18:18.445Z,5.17
2018-04-25T20:20:46.713Z,3.50
2018-04-25T20:23:14.964Z,3.50
2018-04-25T20:25:42.551Z,6.43
2018-04-25T20:28:10.040Z,3.20
2018-04-25T20:30:38.411Z,3.13
2018-04-25T20:33:05.903Z,3.10
2018-04-25T20:35:33.422Z,4.03
2018-04-25T20:38:00.992Z,2.97
2018-04-25T20:40:28.501Z,4.50
2018-04-25T20:42:55.985Z,3.13
2018-04-25T20:45:23.469Z,3.20
2018-04-25T20:47:50.987Z,5.13
2018-04-25T20:50:18.525Z,3.00
2018-04-25T20:52:46.095Z,3.40
2018-04-25T20:55:13.647Z,3.43
2018-04-25T20:57:41.155Z,4.60
2018-04-25T21:00:08.679Z,5.10
2018-04-25T21:02:36.249Z,5.57
2018-04-25T21:05:03.756Z,3.83
2018-04-25T21:07:31.267Z,3.17
2018-04-25T21:09:58.840Z,3.17
2018-04-25T21:12:26.479Z,3.67
2018-04-25T21:14:54.075Z,5.50
2018-04-25T21:17:21.677Z,2.97
2018-04-25T21:19:49.166Z,3.50
2018-04-25T21:22:16.649Z,3.30
2018-04-25T21:24:44.141Z,3.63
2018-04-25T21:27:11.633Z,3.97
2018-04-25T21:29:39.136Z,3.40
2018-04-25T21:32:06.621Z,3.30
2018-04-25T21:34:34.108Z,6.20
2018-04-25T21:37:02.371Z,3.77
2018-04-25T21:39:29.945Z,4.47
2018-04-25T21:41:57.458Z,4.50
2018-04-25T21:44:24.939Z,3.03
2018-04-25T21:46:52.507Z,2.70
2018-04-25T21:49:20.078Z,3.37
2018-04-25T21:51:47.665Z,2.90
2018-04-25T21:54:15.169Z,2.93
2018-04-25T21:56:42.679Z,2.63
2018-04-25T21:59:10.254Z,3.07
2018-04-25T22:01:37.743Z,3.10
2018-04-25T22:04:06.101Z,4.30
2018-04-25T22:06:33.601Z,3.07
2018-04-25T22:09:01.079Z,2.67
2018-04-25T22:11:28.647Z,2.43
2018-04-25T22:13:56.174Z,3.47
2018-04-25T22:16:23.666Z,2.70
2018-04-25T22:18:51.183Z,2.50
2018-04-25T22:21:18.758Z,2.70
2018-04-25T22:23:46.242Z,2.80
2018-04-25T22:26:14.593Z,2.63
2018-04-25T22:28:42.078Z,2.50
2018-04-25T22:31:09.630Z,2.70
2018-04-25T22:33:37.912Z,2.60
2018-04-25T22:36:05.411Z,2.47
2018-04-25T22:38:32.905Z,2.73
2018-04-25T22:41:00.423Z,2.40
2018-04-25T22:43:28.780Z,2.83
2018-04-25T22:45:56.354Z,2.67
2018-04-25T22:48:23.913Z,4.13
2018-04-25T22:50:51.483Z,2.33
2018-04-25T22:53:19.068Z,2.40
2018-04-25T22:55:46.625Z,2.47
2018-04-25T22:58:14.116Z,1.93
2018-04-25T23:00:42.362Z,2.37
2018-04-25T23:03:10.607Z,3.53
2018-04-25T23:05:38.093Z,2.40
2018-04-25T23:08:05.614Z,2.23
2018-04-25T23:10:33.860Z,2.30
2018-04-25T23:13:01.413Z,2.60
2018-04-25T23:15:29.001Z,3.97
2018-04-25T23:17:56.503Z,2.23
2018-04-25T23:20:24.020Z,2.10
2018-04-25T23:22:51.569Z,2.20
2018-04-25T23:25:19.045Z,2.30
2018-04-25T23:27:46.536Z,2.20
2018-04-25T23:30:14.903Z,2.30
2018-04-25T23:32:42.458Z,2.00
2018-04-25T23:35:09.949Z,2.20
2018-04-25T23:37:38.201Z,2.53
2018-04-25T23:40:05.764Z,2.40
2018-04-25T23:42:33.242Z,2.33
2018-04-25T23:45:00.771Z,2.03
2018-04-25T23:47:28.352Z,2.17
2018-04-25T23:49:55.840Z,1.70
2018-04-25T23:52:23.388Z,1.93
2018-04-25T23:54:50.948Z,2.27
2018-04-25T23:57:18.446Z,3.33
2018-04-25T23:59:46.712Z,2.10
